Aérodrome :
LOGIN :

S'inscrire | Disclaimer

   EN    FR    IT 

 










Légende :    VFR   VFR Marginal   IFR   IFR Intensif   IFR Très Intensif
Visi : 
Plafond : 
>= 8 km
>= 3000ft
5 à 8 km
1000 à 3000 ft
1500m à 5 km
500 à 1000 ft
800 à 1500m
200 à 500 ft
< 800m
< 200 ft
Symboles :   Orages  Brouillard  Fortes neiges  Fortes précipitations  Vent > 20 kt
SIGMETs :   Divers  Orages  Givrage  Turbulence  Onde Orograph.  Cendres Volcan.






- Altitude de l'aérodrome : 257 ft
- Code IATA : MAN


EGCC - Manchester

DERNIER METAR :
  • 230850Z AUTO 30006KT 260V360 9999 BKN019 18/13 Q1017

METARs EXPIRÉS :
  • 230820Z VRB04KT 9999 SCT014 17/14 Q1017
  • 230750Z AUTO 29004KT 250V330 9999 SCT010 17/14 Q1017
  • 230720Z 27004KT 240V310 9999 FEW012 16/14 Q1016
  • 230650Z AUTO 25003KT 220V280 9999 FEW008 16/14 Q1016 NOSIG
  • 230620Z AUTO 32004KT 9999 NCD 16/13 Q1016
  • 230550Z AUTO 30003KT 240V330 9999 NCD 15/13 Q1016
  • 230520Z 00000KT CAVOK 15/13 Q1015
  • 230450Z AUTO VRB01KT 9999 NCD 14/13 Q1015
  • 230420Z VRB02KT 9000 NSC 14/13 Q1015

TAF TAF EGCC
Valide du 23 à 06h jusqu'au 24 à 12h UTC


230454Z 2306/2412 20006KT 9999 SCT030
PROB30
TEMPO 2306/2310 7000 BKN010
PROB30
TEMPO 2310/2317 6000 SHRA
ATIS : +44 161 499 2324



MET'MAP, la Météo Aéronautique d'un coup d'oeil ! - Copyright ORBIFLY Décembre 2007 - Disclaimer

ORBIFLY MET'MAP TEAM :

Programmation & Développement : Alexandra Zaïnal
Sur une idée originale de : Baudouin d'Aumeries
Soutien technique & logistique : Manuel Goepfert
Assistance : Marc-Olivier Méhu




SOURCES & CREDITS :

   NOAA